sensor_id;sensor_type;location;lat;lon;timestamp;P1;durP1;ratioP1;P2;durP2;ratioP2
70757;SDS011;59316;52.964;7.102;2023-07-13T00:03:57;8.25;;;2.78;;
70757;SDS011;59316;52.964;7.102;2023-07-13T00:09:20;9.68;;;3.33;;
70757;SDS011;59316;52.964;7.102;2023-07-13T00:14:43;12.57;;;2.72;;
70757;SDS011;59316;52.964;7.102;2023-07-13T00:20:04;6.05;;;2.25;;
70757;SDS011;59316;52.964;7.102;2023-07-13T00:25:27;9.27;;;2.60;;
70757;SDS011;59316;52.964;7.102;2023-07-13T00:30:48;9.70;;;2.20;;
70757;SDS011;59316;52.964;7.102;2023-07-13T00:36:10;7.13;;;2.30;;
70757;SDS011;59316;52.964;7.102;2023-07-13T00:41:33;7.72;;;2.28;;
70757;SDS011;59316;52.964;7.102;2023-07-13T00:46:56;7.27;;;2.47;;
70757;SDS011;59316;52.964;7.102;2023-07-13T00:52:18;11.77;;;2.63;;
70757;SDS011;59316;52.964;7.102;2023-07-13T00:57:40;8.77;;;2.20;;
70757;SDS011;59316;52.964;7.102;2023-07-13T01:03:02;8.55;;;2.63;;
70757;SDS011;59316;52.964;7.102;2023-07-13T01:08:25;10.88;;;3.03;;
70757;SDS011;59316;52.964;7.102;2023-07-13T01:13:46;10.05;;;2.60;;
70757;SDS011;59316;52.964;7.102;2023-07-13T01:19:22;9.75;;;2.50;;
70757;SDS011;59316;52.964;7.102;2023-07-13T01:24:57;10.63;;;2.70;;
70757;SDS011;59316;52.964;7.102;2023-07-13T01:30:18;8.70;;;2.53;;
70757;SDS011;59316;52.964;7.102;2023-07-13T01:35:40;7.68;;;2.38;;
70757;SDS011;59316;52.964;7.102;2023-07-13T01:41:02;14.00;;;2.90;;
70757;SDS011;59316;52.964;7.102;2023-07-13T01:46:24;9.00;;;2.85;;
70757;SDS011;59316;52.964;7.102;2023-07-13T01:51:46;10.48;;;2.40;;
70757;SDS011;59316;52.964;7.102;2023-07-13T01:57:07;9.05;;;2.83;;
70757;SDS011;59316;52.964;7.102;2023-07-13T02:02:29;7.10;;;2.47;;
70757;SDS011;59316;52.964;7.102;2023-07-13T02:07:51;9.10;;;2.47;;
70757;SDS011;59316;52.964;7.102;2023-07-13T02:13:12;8.80;;;2.30;;
70757;SDS011;59316;52.964;7.102;2023-07-13T02:18:34;8.50;;;2.80;;
70757;SDS011;59316;52.964;7.102;2023-07-13T02:23:55;10.10;;;2.55;;
70757;SDS011;59316;52.964;7.102;2023-07-13T02:29:17;10.65;;;2.90;;
70757;SDS011;59316;52.964;7.102;2023-07-13T02:34:40;5.35;;;2.20;;
70757;SDS011;59316;52.964;7.102;2023-07-13T02:40:02;9.47;;;2.67;;
70757;SDS011;59316;52.964;7.102;2023-07-13T02:45:24;9.00;;;2.50;;
70757;SDS011;59316;52.964;7.102;2023-07-13T02:50:45;13.90;;;2.60;;
70757;SDS011;59316;52.964;7.102;2023-07-13T02:56:07;6.25;;;3.08;;
70757;SDS011;59316;52.964;7.102;2023-07-13T03:01:29;14.02;;;3.08;;
70757;SDS011;59316;52.964;7.102;2023-07-13T03:06:50;12.90;;;2.38;;
70757;SDS011;59316;52.964;7.102;2023-07-13T03:12:15;16.30;;;2.85;;
70757;SDS011;59316;52.964;7.102;2023-07-13T03:17:37;8.48;;;2.72;;
70757;SDS011;59316;52.964;7.102;2023-07-13T03:22:58;8.57;;;2.55;;
70757;SDS011;59316;52.964;7.102;2023-07-13T03:28:21;5.15;;;2.47;;
70757;SDS011;59316;52.964;7.102;2023-07-13T03:33:42;10.35;;;2.75;;
70757;SDS011;59316;52.964;7.102;2023-07-13T03:39:05;11.68;;;2.67;;
70757;SDS011;59316;52.964;7.102;2023-07-13T03:44:33;9.88;;;2.85;;
70757;SDS011;59316;52.964;7.102;2023-07-13T03:49:56;13.23;;;2.67;;
70757;SDS011;59316;52.964;7.102;2023-07-13T03:55:18;6.53;;;2.22;;
70757;SDS011;59316;52.964;7.102;2023-07-13T04:00:40;10.82;;;2.80;;
70757;SDS011;59316;52.964;7.102;2023-07-13T04:06:02;11.55;;;3.10;;
70757;SDS011;59316;52.964;7.102;2023-07-13T04:11:27;9.93;;;2.70;;
70757;SDS011;59316;52.964;7.102;2023-07-13T04:16:51;9.18;;;4.20;;
70757;SDS011;59316;52.964;7.102;2023-07-13T04:22:12;14.35;;;3.05;;
70757;SDS011;59316;52.964;7.102;2023-07-13T04:27:34;14.07;;;2.80;;
70757;SDS011;59316;52.964;7.102;2023-07-13T04:32:55;6.72;;;2.70;;
70757;SDS011;59316;52.964;7.102;2023-07-13T04:38:16;10.02;;;3.22;;
70757;SDS011;59316;52.964;7.102;2023-07-13T04:43:38;13.27;;;3.20;;
70757;SDS011;59316;52.964;7.102;2023-07-13T04:49:00;10.70;;;3.03;;
70757;SDS011;59316;52.964;7.102;2023-07-13T04:54:21;11.95;;;3.38;;
70757;SDS011;59316;52.964;7.102;2023-07-13T04:59:42;8.50;;;2.95;;
70757;SDS011;59316;52.964;7.102;2023-07-13T05:05:04;12.13;;;3.50;;
70757;SDS011;59316;52.964;7.102;2023-07-13T05:10:26;11.32;;;3.08;;
70757;SDS011;59316;52.964;7.102;2023-07-13T05:15:56;14.30;;;3.92;;
70757;SDS011;59316;52.964;7.102;2023-07-13T05:21:24;12.40;;;3.33;;
70757;SDS011;59316;52.964;7.102;2023-07-13T05:26:45;15.00;;;3.40;;
70757;SDS011;59316;52.964;7.102;2023-07-13T05:32:07;12.65;;;3.53;;
70757;SDS011;59316;52.964;7.102;2023-07-13T05:37:28;8.45;;;2.35;;
70757;SDS011;59316;52.964;7.102;2023-07-13T05:42:50;10.00;;;2.70;;
70757;SDS011;59316;52.964;7.102;2023-07-13T05:48:11;7.20;;;2.72;;
70757;SDS011;59316;52.964;7.102;2023-07-13T05:53:33;8.52;;;3.00;;
70757;SDS011;59316;52.964;7.102;2023-07-13T05:58:56;7.65;;;2.42;;
70757;SDS011;59316;52.964;7.102;2023-07-13T06:04:17;9.48;;;2.80;;
70757;SDS011;59316;52.964;7.102;2023-07-13T06:09:39;10.15;;;2.80;;
70757;SDS011;59316;52.964;7.102;2023-07-13T06:15:01;8.73;;;2.55;;
70757;SDS011;59316;52.964;7.102;2023-07-13T06:20:23;9.65;;;2.25;;
70757;SDS011;59316;52.964;7.102;2023-07-13T06:25:44;11.30;;;2.83;;
70757;SDS011;59316;52.964;7.102;2023-07-13T06:31:06;9.82;;;3.08;;
70757;SDS011;59316;52.964;7.102;2023-07-13T06:36:31;8.68;;;2.75;;
70757;SDS011;59316;52.964;7.102;2023-07-13T06:41:52;7.18;;;2.60;;
70757;SDS011;59316;52.964;7.102;2023-07-13T06:47:14;8.88;;;2.20;;
70757;SDS011;59316;52.964;7.102;2023-07-13T06:52:35;5.60;;;2.30;;
70757;SDS011;59316;52.964;7.102;2023-07-13T06:57:57;5.78;;;1.92;;
70757;SDS011;59316;52.964;7.102;2023-07-13T07:03:18;8.50;;;2.35;;
70757;SDS011;59316;52.964;7.102;2023-07-13T07:08:40;9.63;;;2.17;;
70757;SDS011;59316;52.964;7.102;2023-07-13T07:14:04;8.18;;;2.25;;
70757;SDS011;59316;52.964;7.102;2023-07-13T07:19:26;11.05;;;2.70;;
70757;SDS011;59316;52.964;7.102;2023-07-13T07:24:49;5.53;;;2.58;;
70757;SDS011;59316;52.964;7.102;2023-07-13T07:30:11;8.45;;;2.20;;
70757;SDS011;59316;52.964;7.102;2023-07-13T07:35:36;5.47;;;2.40;;
70757;SDS011;59316;52.964;7.102;2023-07-13T07:41:17;8.38;;;2.30;;
70757;SDS011;59316;52.964;7.102;2023-07-13T07:46:41;5.18;;;2.10;;
70757;SDS011;59316;52.964;7.102;2023-07-13T07:52:02;8.18;;;2.33;;
70757;SDS011;59316;52.964;7.102;2023-07-13T07:57:24;5.75;;;2.60;;
70757;SDS011;59316;52.964;7.102;2023-07-13T08:02:49;7.25;;;2.30;;
70757;SDS011;59316;52.964;7.102;2023-07-13T08:08:13;10.25;;;2.63;;
70757;SDS011;59316;52.964;7.102;2023-07-13T08:13:34;6.57;;;2.80;;
70757;SDS011;59316;52.964;7.102;2023-07-13T08:18:55;6.88;;;3.00;;
70757;SDS011;59316;52.964;7.102;2023-07-13T08:24:16;10.30;;;3.47;;
70757;SDS011;59316;52.964;7.102;2023-07-13T08:29:38;8.70;;;3.17;;
70757;SDS011;59316;52.964;7.102;2023-07-13T08:34:59;8.02;;;3.08;;
70757;SDS011;59316;52.964;7.102;2023-07-13T08:40:23;8.90;;;3.35;;
70757;SDS011;59316;52.964;7.102;2023-07-13T08:45:47;10.48;;;3.58;;
70757;SDS011;59316;52.964;7.102;2023-07-13T08:51:35;9.43;;;3.70;;
70757;SDS011;59316;52.964;7.102;2023-07-13T08:57:15;10.82;;;3.70;;
70757;SDS011;59316;52.964;7.102;2023-07-13T09:02:42;7.80;;;3.20;;
70757;SDS011;59316;52.964;7.102;2023-07-13T09:19:48;8.60;;;3.42;;
70757;SDS011;59316;52.964;7.102;2023-07-13T09:31:00;10.35;;;3.50;;
70757;SDS011;59316;52.964;7.102;2023-07-13T09:36:27;6.43;;;2.00;;
70757;SDS011;59316;52.964;7.102;2023-07-13T09:47:46;6.35;;;2.42;;
70757;SDS011;59316;52.964;7.102;2023-07-13T09:53:26;6.07;;;3.00;;
70757;SDS011;59316;52.964;7.102;2023-07-13T09:58:51;5.40;;;2.83;;
70757;SDS011;59316;52.964;7.102;2023-07-13T10:04:13;5.50;;;2.80;;
70757;SDS011;59316;52.964;7.102;2023-07-13T10:09:39;3.03;;;2.22;;
70757;SDS011;59316;52.964;7.102;2023-07-13T10:15:01;5.07;;;2.50;;
70757;SDS011;59316;52.964;7.102;2023-07-13T10:20:42;5.50;;;2.75;;
70757;SDS011;59316;52.964;7.102;2023-07-13T10:26:05;4.90;;;2.85;;
70757;SDS011;59316;52.964;7.102;2023-07-13T10:31:36;5.28;;;1.90;;
70757;SDS011;59316;52.964;7.102;2023-07-13T10:36:59;2.10;;;1.52;;
70757;SDS011;59316;52.964;7.102;2023-07-13T10:42:25;2.28;;;1.70;;
70757;SDS011;59316;52.964;7.102;2023-07-13T10:47:57;2.35;;;1.80;;
70757;SDS011;59316;52.964;7.102;2023-07-13T10:53:20;4.13;;;1.70;;
70757;SDS011;59316;52.964;7.102;2023-07-13T10:59:01;2.05;;;1.65;;
70757;SDS011;59316;52.964;7.102;2023-07-13T11:04:42;2.60;;;1.88;;
70757;SDS011;59316;52.964;7.102;2023-07-13T11:10:09;4.22;;;2.10;;
70757;SDS011;59316;52.964;7.102;2023-07-13T11:38:36;3.05;;;2.00;;
70757;SDS011;59316;52.964;7.102;2023-07-13T11:44:11;6.22;;;2.40;;
70757;SDS011;59316;52.964;7.102;2023-07-13T11:49:42;4.03;;;2.63;;
70757;SDS011;59316;52.964;7.102;2023-07-13T11:55:13;5.22;;;3.05;;
70757;SDS011;59316;52.964;7.102;2023-07-13T12:00:37;7.15;;;3.80;;
70757;SDS011;59316;52.964;7.102;2023-07-13T12:06:03;8.55;;;3.92;;
70757;SDS011;59316;52.964;7.102;2023-07-13T12:11:26;7.43;;;3.20;;
70757;SDS011;59316;52.964;7.102;2023-07-13T12:16:48;11.10;;;4.13;;
70757;SDS011;59316;52.964;7.102;2023-07-13T12:22:11;4.80;;;3.25;;
70757;SDS011;59316;52.964;7.102;2023-07-13T12:27:34;3.17;;;2.40;;
70757;SDS011;59316;52.964;7.102;2023-07-13T12:33:02;6.32;;;3.20;;
70757;SDS011;59316;52.964;7.102;2023-07-13T12:38:50;4.37;;;3.23;;
70757;SDS011;59316;52.964;7.102;2023-07-13T12:44:14;6.82;;;3.85;;
70757;SDS011;59316;52.964;7.102;2023-07-13T12:49:43;3.58;;;3.10;;
70757;SDS011;59316;52.964;7.102;2023-07-13T12:55:15;4.13;;;3.58;;
70757;SDS011;59316;52.964;7.102;2023-07-13T13:00:48;4.32;;;2.97;;
70757;SDS011;59316;52.964;7.102;2023-07-13T13:11:38;4.53;;;2.47;;
70757;SDS011;59316;52.964;7.102;2023-07-13T13:16:59;5.35;;;2.30;;
70757;SDS011;59316;52.964;7.102;2023-07-13T13:22:21;3.25;;;2.15;;
70757;SDS011;59316;52.964;7.102;2023-07-13T13:27:43;4.00;;;1.92;;
70757;SDS011;59316;52.964;7.102;2023-07-13T13:33:04;6.38;;;2.42;;
70757;SDS011;59316;52.964;7.102;2023-07-13T13:38:36;4.47;;;1.75;;
70757;SDS011;59316;52.964;7.102;2023-07-13T13:43:58;2.85;;;1.25;;
70757;SDS011;59316;52.964;7.102;2023-07-13T13:49:21;1.90;;;1.00;;
70757;SDS011;59316;52.964;7.102;2023-07-13T13:54:44;3.35;;;0.93;;
70757;SDS011;59316;52.964;7.102;2023-07-13T14:00:05;3.55;;;1.10;;
70757;SDS011;59316;52.964;7.102;2023-07-13T14:05:30;2.65;;;1.10;;
70757;SDS011;59316;52.964;7.102;2023-07-13T14:10:52;3.85;;;1.00;;
70757;SDS011;59316;52.964;7.102;2023-07-13T14:16:21;2.58;;;1.00;;
70757;SDS011;59316;52.964;7.102;2023-07-13T14:21:48;2.20;;;1.05;;
70757;SDS011;59316;52.964;7.102;2023-07-13T14:27:10;3.13;;;1.10;;
70757;SDS011;59316;52.964;7.102;2023-07-13T14:32:32;3.17;;;1.40;;
70757;SDS011;59316;52.964;7.102;2023-07-13T14:37:53;3.78;;;1.30;;
70757;SDS011;59316;52.964;7.102;2023-07-13T14:43:15;3.83;;;1.23;;
70757;SDS011;59316;52.964;7.102;2023-07-13T14:48:38;2.92;;;0.98;;
70757;SDS011;59316;52.964;7.102;2023-07-13T14:54:02;1.83;;;1.00;;
70757;SDS011;59316;52.964;7.102;2023-07-13T14:59:24;1.38;;;0.82;;
70757;SDS011;59316;52.964;7.102;2023-07-13T15:04:46;2.72;;;1.17;;
70757;SDS011;59316;52.964;7.102;2023-07-13T15:10:14;2.40;;;1.05;;
70757;SDS011;59316;52.964;7.102;2023-07-13T15:15:42;4.07;;;1.05;;
70757;SDS011;59316;52.964;7.102;2023-07-13T15:21:11;1.40;;;0.90;;
70757;SDS011;59316;52.964;7.102;2023-07-13T15:26:43;2.08;;;1.00;;
70757;SDS011;59316;52.964;7.102;2023-07-13T15:32:05;4.38;;;1.17;;
70757;SDS011;59316;52.964;7.102;2023-07-13T15:37:33;2.70;;;1.17;;
70757;SDS011;59316;52.964;7.102;2023-07-13T15:42:55;2.60;;;1.05;;
70757;SDS011;59316;52.964;7.102;2023-07-13T15:48:17;2.83;;;1.10;;
70757;SDS011;59316;52.964;7.102;2023-07-13T15:59:00;4.00;;;1.38;;
70757;SDS011;59316;52.964;7.102;2023-07-13T16:04:22;4.75;;;1.30;;
70757;SDS011;59316;52.964;7.102;2023-07-13T16:09:44;4.15;;;1.20;;
70757;SDS011;59316;52.964;7.102;2023-07-13T16:15:10;4.35;;;1.13;;
70757;SDS011;59316;52.964;7.102;2023-07-13T16:20:35;2.88;;;1.02;;
70757;SDS011;59316;52.964;7.102;2023-07-13T16:25:57;4.37;;;1.53;;
70757;SDS011;59316;52.964;7.102;2023-07-13T16:31:19;3.10;;;1.20;;
70757;SDS011;59316;52.964;7.102;2023-07-13T16:36:40;3.22;;;1.10;;
70757;SDS011;59316;52.964;7.102;2023-07-13T16:42:02;4.13;;;1.23;;
70757;SDS011;59316;52.964;7.102;2023-07-13T16:47:23;3.60;;;1.20;;
70757;SDS011;59316;52.964;7.102;2023-07-13T16:52:45;4.82;;;1.20;;
70757;SDS011;59316;52.964;7.102;2023-07-13T16:58:08;5.00;;;1.63;;
70757;SDS011;59316;52.964;7.102;2023-07-13T17:03:31;2.40;;;1.13;;
70757;SDS011;59316;52.964;7.102;2023-07-13T17:08:53;3.25;;;1.15;;
70757;SDS011;59316;52.964;7.102;2023-07-13T17:14:15;2.47;;;1.30;;
70757;SDS011;59316;52.964;7.102;2023-07-13T17:19:38;4.10;;;1.55;;
70757;SDS011;59316;52.964;7.102;2023-07-13T17:25:00;4.13;;;1.60;;
70757;SDS011;59316;52.964;7.102;2023-07-13T17:30:21;6.03;;;1.50;;
70757;SDS011;59316;52.964;7.102;2023-07-13T17:35:43;3.72;;;1.55;;
70757;SDS011;59316;52.964;7.102;2023-07-13T17:41:04;6.13;;;1.30;;
70757;SDS011;59316;52.964;7.102;2023-07-13T17:46:30;3.75;;;1.60;;
70757;SDS011;59316;52.964;7.102;2023-07-13T17:51:52;3.33;;;1.80;;
70757;SDS011;59316;52.964;7.102;2023-07-13T17:57:14;3.97;;;1.52;;
70757;SDS011;59316;52.964;7.102;2023-07-13T18:02:38;2.90;;;1.33;;
70757;SDS011;59316;52.964;7.102;2023-07-13T18:08:03;4.60;;;1.75;;
70757;SDS011;59316;52.964;7.102;2023-07-13T18:13:25;6.28;;;1.70;;
70757;SDS011;59316;52.964;7.102;2023-07-13T18:18:47;6.22;;;1.92;;
70757;SDS011;59316;52.964;7.102;2023-07-13T18:24:09;4.32;;;1.90;;
70757;SDS011;59316;52.964;7.102;2023-07-13T18:29:30;2.85;;;1.40;;
70757;SDS011;59316;52.964;7.102;2023-07-13T18:34:51;7.03;;;1.85;;
70757;SDS011;59316;52.964;7.102;2023-07-13T18:40:14;4.78;;;1.80;;
70757;SDS011;59316;52.964;7.102;2023-07-13T18:45:38;5.38;;;1.52;;
70757;SDS011;59316;52.964;7.102;2023-07-13T18:50:59;2.95;;;1.83;;
70757;SDS011;59316;52.964;7.102;2023-07-13T18:56:20;4.95;;;1.85;;
70757;SDS011;59316;52.964;7.102;2023-07-13T19:01:42;3.97;;;1.83;;
70757;SDS011;59316;52.964;7.102;2023-07-13T19:07:04;4.32;;;2.22;;
70757;SDS011;59316;52.964;7.102;2023-07-13T19:12:29;7.05;;;2.00;;
70757;SDS011;59316;52.964;7.102;2023-07-13T19:17:51;3.70;;;2.17;;
70757;SDS011;59316;52.964;7.102;2023-07-13T19:23:24;5.03;;;2.22;;
70757;SDS011;59316;52.964;7.102;2023-07-13T19:28:53;5.68;;;2.53;;
70757;SDS011;59316;52.964;7.102;2023-07-13T19:34:21;5.88;;;2.30;;
70757;SDS011;59316;52.964;7.102;2023-07-13T19:39:45;4.00;;;2.03;;
70757;SDS011;59316;52.964;7.102;2023-07-13T19:45:17;5.60;;;2.50;;
70757;SDS011;59316;52.964;7.102;2023-07-13T19:50:42;5.18;;;2.60;;
70757;SDS011;59316;52.964;7.102;2023-07-13T19:56:03;4.57;;;2.75;;
70757;SDS011;59316;52.964;7.102;2023-07-13T20:01:25;5.13;;;2.72;;
70757;SDS011;59316;52.964;7.102;2023-07-13T20:06:46;8.20;;;3.03;;
70757;SDS011;59316;52.964;7.102;2023-07-13T20:12:12;4.68;;;2.63;;
70757;SDS011;59316;52.964;7.102;2023-07-13T20:17:37;7.57;;;2.90;;
70757;SDS011;59316;52.964;7.102;2023-07-13T20:22:58;8.88;;;3.10;;
70757;SDS011;59316;52.964;7.102;2023-07-13T20:28:21;5.82;;;3.38;;
70757;SDS011;59316;52.964;7.102;2023-07-13T20:33:43;7.90;;;3.38;;
70757;SDS011;59316;52.964;7.102;2023-07-13T20:39:04;4.80;;;3.00;;
70757;SDS011;59316;52.964;7.102;2023-07-13T20:44:25;6.28;;;3.38;;
70757;SDS011;59316;52.964;7.102;2023-07-13T20:49:47;6.63;;;3.50;;
70757;SDS011;59316;52.964;7.102;2023-07-13T20:55:13;7.20;;;3.20;;
70757;SDS011;59316;52.964;7.102;2023-07-13T21:00:49;6.90;;;2.92;;
70757;SDS011;59316;52.964;7.102;2023-07-13T21:06:13;8.98;;;3.63;;
70757;SDS011;59316;52.964;7.102;2023-07-13T21:11:38;6.03;;;3.42;;
70757;SDS011;59316;52.964;7.102;2023-07-13T21:17:00;8.02;;;3.25;;
70757;SDS011;59316;52.964;7.102;2023-07-13T21:22:21;10.05;;;3.75;;
70757;SDS011;59316;52.964;7.102;2023-07-13T21:27:43;9.40;;;4.15;;
70757;SDS011;59316;52.964;7.102;2023-07-13T21:33:05;7.90;;;4.25;;
70757;SDS011;59316;52.964;7.102;2023-07-13T21:38:28;9.98;;;4.78;;
70757;SDS011;59316;52.964;7.102;2023-07-13T21:43:56;8.48;;;4.57;;
70757;SDS011;59316;52.964;7.102;2023-07-13T21:49:18;10.52;;;4.45;;
70757;SDS011;59316;52.964;7.102;2023-07-13T21:54:40;7.50;;;4.97;;
70757;SDS011;59316;52.964;7.102;2023-07-13T22:00:02;6.90;;;4.43;;
70757;SDS011;59316;52.964;7.102;2023-07-13T22:05:33;9.00;;;5.07;;
70757;SDS011;59316;52.964;7.102;2023-07-13T22:10:55;7.75;;;4.63;;
70757;SDS011;59316;52.964;7.102;2023-07-13T22:16:25;7.43;;;4.93;;
70757;SDS011;59316;52.964;7.102;2023-07-13T22:21:49;9.52;;;5.38;;
70757;SDS011;59316;52.964;7.102;2023-07-13T22:27:11;7.18;;;5.20;;
70757;SDS011;59316;52.964;7.102;2023-07-13T22:32:33;10.63;;;6.28;;
70757;SDS011;59316;52.964;7.102;2023-07-13T22:37:54;10.27;;;6.47;;
70757;SDS011;59316;52.964;7.102;2023-07-13T22:43:20;10.02;;;6.28;;
70757;SDS011;59316;52.964;7.102;2023-07-13T22:49:15;11.75;;;7.30;;
70757;SDS011;59316;52.964;7.102;2023-07-13T22:54:40;10.95;;;6.88;;
70757;SDS011;59316;52.964;7.102;2023-07-13T23:00:02;13.40;;;7.35;;
70757;SDS011;59316;52.964;7.102;2023-07-13T23:05:23;12.77;;;6.50;;
70757;SDS011;59316;52.964;7.102;2023-07-13T23:10:46;13.00;;;7.45;;
70757;SDS011;59316;52.964;7.102;2023-07-13T23:16:11;14.43;;;8.55;;
70757;SDS011;59316;52.964;7.102;2023-07-13T23:21:34;13.48;;;8.98;;
70757;SDS011;59316;52.964;7.102;2023-07-13T23:26:55;16.52;;;9.75;;
70757;SDS011;59316;52.964;7.102;2023-07-13T23:32:17;15.77;;;9.60;;
70757;SDS011;59316;52.964;7.102;2023-07-13T23:37:39;16.80;;;10.43;;
70757;SDS011;59316;52.964;7.102;2023-07-13T23:43:02;14.77;;;9.73;;
70757;SDS011;59316;52.964;7.102;2023-07-13T23:48:24;17.63;;;10.93;;
70757;SDS011;59316;52.964;7.102;2023-07-13T23:53:45;23.20;;;11.18;;
70757;SDS011;59316;52.964;7.102;2023-07-13T23:59:06;23.65;;;12.27;;
